createdAt,value
2017-09-04T00:02:08.996Z,8.80
2017-09-04T00:04:36.570Z,8.70
2017-09-04T00:07:04.138Z,8.70
2017-09-04T00:09:31.734Z,8.70
2017-09-04T00:11:59.321Z,8.70
2017-09-04T00:14:26.908Z,8.70
2017-09-04T00:16:54.493Z,8.70
2017-09-04T00:19:22.093Z,8.60
2017-09-04T00:21:49.774Z,8.60
2017-09-04T00:24:17.747Z,8.60
2017-09-04T00:26:45.344Z,8.60
2017-09-04T00:29:12.927Z,8.60
2017-09-04T00:31:40.553Z,8.60
2017-09-04T00:34:08.181Z,8.60
2017-09-04T00:36:35.835Z,8.50
2017-09-04T00:39:03.475Z,8.50
2017-09-04T00:41:31.805Z,8.50
2017-09-04T00:43:59.395Z,8.50
2017-09-04T00:46:26.966Z,8.50
2017-09-04T00:48:54.519Z,8.40
2017-09-04T00:51:22.075Z,8.40
2017-09-04T00:53:50.443Z,8.40
2017-09-04T00:56:18.063Z,8.40
2017-09-04T00:58:45.655Z,8.40
2017-09-04T01:01:13.224Z,8.40
2017-09-04T01:03:40.807Z,8.40
2017-09-04T01:06:08.389Z,8.40
2017-09-04T01:08:35.952Z,8.40
2017-09-04T01:11:03.588Z,8.30
2017-09-04T01:13:31.230Z,8.30
2017-09-04T01:15:58.809Z,8.30
2017-09-04T01:18:26.382Z,8.30
2017-09-04T01:20:54.937Z,8.30
2017-09-04T01:23:22.527Z,8.30
2017-09-04T01:25:50.102Z,8.30
2017-09-04T01:28:17.685Z,8.30
2017-09-04T01:30:45.265Z,8.40
2017-09-04T01:33:12.815Z,8.30
2017-09-04T01:35:40.417Z,8.30
2017-09-04T01:38:07.958Z,8.30
2017-09-04T01:40:35.534Z,8.30
2017-09-04T01:43:04.004Z,8.30
2017-09-04T01:45:31.595Z,8.30
2017-09-04T01:47:59.163Z,8.30
2017-09-04T01:50:26.737Z,8.30
2017-09-04T01:52:54.305Z,8.20
2017-09-04T01:55:21.908Z,8.20
2017-09-04T01:57:49.492Z,8.20
2017-09-04T02:00:17.074Z,8.20
2017-09-04T02:02:44.653Z,8.10
2017-09-04T02:05:12.226Z,8.10
2017-09-04T02:07:39.812Z,8.10
2017-09-04T02:10:07.398Z,8.10
2017-09-04T02:12:34.946Z,8.10
2017-09-04T02:15:02.543Z,8.10
2017-09-04T02:17:30.101Z,8.10
2017-09-04T02:19:58.442Z,8.00
2017-09-04T02:22:26.010Z,8.00
2017-09-04T02:24:53.594Z,8.00
2017-09-04T02:27:21.153Z,8.00
2017-09-04T02:29:48.713Z,8.00
2017-09-04T02:32:16.279Z,7.90
2017-09-04T02:34:43.848Z,7.90
2017-09-04T02:37:11.412Z,7.90
2017-09-04T02:39:39.017Z,7.90
2017-09-04T02:42:06.586Z,7.80
2017-09-04T02:44:34.164Z,7.80
2017-09-04T02:47:01.746Z,7.80
2017-09-04T02:49:29.335Z,7.70
2017-09-04T02:51:56.903Z,7.70
2017-09-04T02:54:24.782Z,7.70
2017-09-04T02:56:52.351Z,7.70
2017-09-04T02:59:19.910Z,7.60
2017-09-04T03:01:47.489Z,7.60
2017-09-04T03:04:15.809Z,7.60
2017-09-04T03:06:43.385Z,7.60
2017-09-04T03:09:10.945Z,7.60
2017-09-04T03:11:38.521Z,7.50
2017-09-04T03:14:06.077Z,7.50
2017-09-04T03:16:33.699Z,7.50
2017-09-04T03:19:01.276Z,7.50
2017-09-04T03:21:28.844Z,7.50
2017-09-04T03:23:56.415Z,7.50
2017-09-04T03:26:24.028Z,7.50
2017-09-04T03:28:51.590Z,7.40
2017-09-04T03:31:19.163Z,7.40
2017-09-04T03:33:46.725Z,7.40
2017-09-04T03:36:15.054Z,7.40
2017-09-04T03:38:43.392Z,7.40
2017-09-04T03:41:10.954Z,7.40
2017-09-04T03:43:38.511Z,7.30
2017-09-04T03:46:06.526Z,7.30
2017-09-04T03:48:34.100Z,7.30
2017-09-04T03:51:01.704Z,7.30
2017-09-04T03:53:29.263Z,7.30
2017-09-04T03:55:56.852Z,7.30
2017-09-04T03:58:25.196Z,7.20
2017-09-04T04:00:52.769Z,7.20
2017-09-04T04:03:20.635Z,7.20
2017-09-04T04:05:48.221Z,7.20
2017-09-04T04:08:16.563Z,7.10
2017-09-04T04:10:44.160Z,7.10
2017-09-04T04:13:12.529Z,7.10
2017-09-04T04:15:40.130Z,7.10
2017-09-04T04:18:07.689Z,7.10
2017-09-04T04:20:35.275Z,7.10
2017-09-04T04:23:02.825Z,7.00
2017-09-04T04:25:30.831Z,7.00
2017-09-04T04:27:59.172Z,7.00
2017-09-04T04:30:26.729Z,7.00
2017-09-04T04:32:54.295Z,7.00
2017-09-04T04:35:21.846Z,7.00
2017-09-04T04:37:49.435Z,7.00
2017-09-04T04:40:17.039Z,6.90
2017-09-04T04:42:44.600Z,6.90
2017-09-04T04:45:12.173Z,7.00
2017-09-04T04:47:39.746Z,6.90
2017-09-04T04:50:07.962Z,6.90
2017-09-04T04:52:36.300Z,7.00
2017-09-04T04:55:03.845Z,6.90
2017-09-04T04:57:31.456Z,7.00
2017-09-04T04:59:59.041Z,7.00
2017-09-04T05:02:26.618Z,7.00
2017-09-04T05:04:54.177Z,7.00
2017-09-04T05:07:21.831Z,7.00
2017-09-04T05:09:50.158Z,7.10
2017-09-04T05:12:17.758Z,7.10
2017-09-04T05:14:45.326Z,7.10
2017-09-04T05:17:12.900Z,7.20
2017-09-04T05:19:40.460Z,7.30
2017-09-04T05:22:08.295Z,7.30
2017-09-04T05:24:35.866Z,7.40
2017-09-04T05:27:03.447Z,7.40
2017-09-04T05:29:31.024Z,7.50
2017-09-04T05:31:58.596Z,7.60
2017-09-04T05:34:26.170Z,7.60
2017-09-04T05:36:53.751Z,7.70
2017-09-04T05:39:21.323Z,7.80
2017-09-04T05:41:48.884Z,8.00
2017-09-04T05:44:16.435Z,8.00
2017-09-04T05:46:44.043Z,8.20
2017-09-04T05:49:11.600Z,8.30
2017-09-04T05:51:39.172Z,8.40
2017-09-04T05:54:06.732Z,8.40
2017-09-04T05:56:35.081Z,8.60
2017-09-04T05:59:02.644Z,8.60
2017-09-04T06:01:30.226Z,8.80
2017-09-04T06:03:58.560Z,9.00
2017-09-04T06:06:26.158Z,9.00
2017-09-04T06:08:53.739Z,9.10
2017-09-04T06:11:21.306Z,9.10
2017-09-04T06:13:48.938Z,9.20
2017-09-04T06:16:16.503Z,9.30
2017-09-04T06:18:44.088Z,9.20
2017-09-04T06:21:11.655Z,9.30
2017-09-04T06:23:39.220Z,9.30
2017-09-04T06:26:06.784Z,9.50
2017-09-04T06:28:34.363Z,9.50
2017-09-04T06:31:01.927Z,9.70
2017-09-04T06:33:29.499Z,9.80
2017-09-04T06:35:57.074Z,10.00
2017-09-04T06:38:24.683Z,10.10
2017-09-04T06:40:52.252Z,10.30
2017-09-04T06:43:19.865Z,10.30
2017-09-04T06:45:47.456Z,10.40
2017-09-04T06:48:15.038Z,10.60
2017-09-04T06:50:42.684Z,10.70
2017-09-04T06:53:10.290Z,10.80
2017-09-04T06:55:38.645Z,11.00
2017-09-04T06:58:06.229Z,11.00
2017-09-04T07:00:33.835Z,11.10
2017-09-04T07:03:01.451Z,11.30
2017-09-04T07:05:29.028Z,11.40
2017-09-04T07:07:56.602Z,11.50
2017-09-04T07:10:24.199Z,11.60
2017-09-04T07:12:51.779Z,11.60
2017-09-04T07:15:19.376Z,11.70
2017-09-04T07:17:46.959Z,11.80
2017-09-04T07:20:14.530Z,12.00
2017-09-04T07:22:42.130Z,12.10
2017-09-04T07:25:10.622Z,12.20
2017-09-04T07:27:38.300Z,12.30
2017-09-04T07:30:05.879Z,12.40
2017-09-04T07:32:33.466Z,12.40
2017-09-04T07:35:01.064Z,12.50
2017-09-04T07:37:28.660Z,12.70
2017-09-04T07:39:56.301Z,12.80
2017-09-04T07:42:23.889Z,12.90
2017-09-04T07:44:51.511Z,12.90
2017-09-04T07:47:19.089Z,13.10
2017-09-04T07:49:46.691Z,13.20
2017-09-04T07:52:14.297Z,13.20
2017-09-04T07:54:41.930Z,13.30
2017-09-04T07:57:09.491Z,13.40
2017-09-04T07:59:37.067Z,13.50
2017-09-04T08:02:04.654Z,13.60
2017-09-04T08:04:32.238Z,13.60
2017-09-04T08:06:59.835Z,13.80
2017-09-04T08:09:27.406Z,13.90
2017-09-04T08:11:55.015Z,14.00
2017-09-04T08:14:22.621Z,14.10
2017-09-04T08:16:50.260Z,14.30
2017-09-04T08:19:18.659Z,14.60
2017-09-04T08:21:46.232Z,14.60
2017-09-04T08:24:13.843Z,14.70
2017-09-04T08:26:41.468Z,14.70
2017-09-04T08:29:09.133Z,14.70
2017-09-04T08:31:36.747Z,14.80
2017-09-04T08:34:04.353Z,14.90
2017-09-04T08:36:31.998Z,15.00
2017-09-04T08:38:59.597Z,15.20
2017-09-04T08:41:27.198Z,15.30
2017-09-04T08:43:54.870Z,15.50
2017-09-04T08:46:22.449Z,15.60
2017-09-04T08:48:50.055Z,15.80
2017-09-04T08:51:17.650Z,15.90
2017-09-04T08:53:45.575Z,15.90
2017-09-04T08:56:13.875Z,16.00
2017-09-04T08:58:41.477Z,16.10
2017-09-04T09:01:09.084Z,16.10
2017-09-04T09:03:36.741Z,16.30
2017-09-04T09:06:04.340Z,16.40
2017-09-04T09:08:31.951Z,16.50
2017-09-04T09:10:59.560Z,16.60
2017-09-04T09:13:27.164Z,16.80
2017-09-04T09:15:54.752Z,17.00
2017-09-04T09:18:22.327Z,17.10
2017-09-04T09:20:50.007Z,17.30
2017-09-04T09:23:18.506Z,17.40
2017-09-04T09:25:46.217Z,17.40
2017-09-04T09:28:13.783Z,17.50
2017-09-04T09:30:41.388Z,17.40
2017-09-04T09:33:08.955Z,17.50
2017-09-04T09:35:36.547Z,17.50
2017-09-04T09:38:04.148Z,17.60
2017-09-04T09:40:31.715Z,17.80
2017-09-04T09:42:59.289Z,17.90
2017-09-04T09:45:26.884Z,18.00
2017-09-04T09:47:54.461Z,18.10
2017-09-04T09:50:22.048Z,18.20
2017-09-04T09:52:49.616Z,18.40
2017-09-04T09:55:17.205Z,18.40
2017-09-04T09:57:45.547Z,18.20
2017-09-04T10:00:14.468Z,18.40
2017-09-04T10:02:42.049Z,18.40
2017-09-04T10:05:09.642Z,18.40
2017-09-04T10:07:37.211Z,18.70
2017-09-04T10:10:04.794Z,18.90
2017-09-04T10:12:33.175Z,19.20
2017-09-04T10:15:00.757Z,19.10
2017-09-04T10:17:28.318Z,19.20
2017-09-04T10:19:55.920Z,19.20
2017-09-04T10:22:23.502Z,19.30
2017-09-04T10:24:51.129Z,19.50
2017-09-04T10:27:18.715Z,19.60
2017-09-04T10:29:46.297Z,19.70
2017-09-04T10:32:14.078Z,19.90
2017-09-04T10:34:41.676Z,20.00
2017-09-04T10:37:09.791Z,20.10
2017-09-04T10:39:38.174Z,19.90
2017-09-04T10:42:05.801Z,19.90
2017-09-04T10:44:33.405Z,20.10
2017-09-04T10:47:02.053Z,20.10
2017-09-04T10:49:29.629Z,20.10
2017-09-04T10:51:57.982Z,19.50
2017-09-04T10:54:25.575Z,19.50
2017-09-04T10:56:53.148Z,19.00
2017-09-04T10:59:20.731Z,19.10
2017-09-04T11:01:48.302Z,19.30
2017-09-04T11:04:15.898Z,19.60
2017-09-04T11:06:43.481Z,19.70
2017-09-04T11:09:11.342Z,19.70
2017-09-04T11:11:39.702Z,19.90
2017-09-04T11:14:07.265Z,19.90
2017-09-04T11:16:35.609Z,20.60
2017-09-04T11:19:03.382Z,20.60
2017-09-04T11:21:31.061Z,21.00
2017-09-04T11:23:58.624Z,21.00
2017-09-04T11:26:26.195Z,20.60
2017-09-04T11:28:53.779Z,20.40
2017-09-04T11:31:21.702Z,20.30
2017-09-04T11:33:49.261Z,20.40
2017-09-04T11:36:16.844Z,20.20
2017-09-04T11:38:44.428Z,20.40
2017-09-04T11:41:12.005Z,20.70
2017-09-04T11:43:39.641Z,21.00
2017-09-04T11:46:07.344Z,21.20
2017-09-04T11:48:34.999Z,21.30
2017-09-04T11:51:02.624Z,21.20
2017-09-04T11:53:30.689Z,21.40
2017-09-04T11:55:58.365Z,21.60
2017-09-04T11:58:26.021Z,21.50
2017-09-04T12:00:53.709Z,21.30
2017-09-04T12:03:21.370Z,21.50
2017-09-04T12:05:49.727Z,21.90
2017-09-04T12:08:17.335Z,21.90
2017-09-04T12:10:44.990Z,21.70
2017-09-04T12:13:12.656Z,21.30
2017-09-04T12:15:40.633Z,21.10
2017-09-04T12:18:08.266Z,21.20
2017-09-04T12:20:35.909Z,21.50
2017-09-04T12:23:03.638Z,21.10
2017-09-04T12:25:31.285Z,21.00
2017-09-04T12:27:58.943Z,21.20
2017-09-04T12:30:27.379Z,21.70
2017-09-04T12:32:55.037Z,21.70
2017-09-04T12:35:22.738Z,21.50
2017-09-04T12:37:51.200Z,21.70
2017-09-04T12:40:18.825Z,21.70
2017-09-04T12:42:46.521Z,21.80
2017-09-04T12:45:14.094Z,21.20
2017-09-04T12:47:41.709Z,21.50
2017-09-04T12:50:10.631Z,21.80
2017-09-04T12:52:38.202Z,21.90
2017-09-04T12:55:05.856Z,22.00
2017-09-04T12:57:33.554Z,22.10
2017-09-04T13:00:01.155Z,22.30
2017-09-04T13:02:28.725Z,21.80
2017-09-04T13:04:56.360Z,21.50
2017-09-04T13:07:24.727Z,21.80
2017-09-04T13:09:52.370Z,21.70
2017-09-04T13:12:21.830Z,21.30
2017-09-04T13:14:55.103Z,21.20
2017-09-04T13:17:28.257Z,21.30
2017-09-04T13:20:02.428Z,21.20
2017-09-04T13:22:35.546Z,21.20
2017-09-04T13:25:08.795Z,21.20
2017-09-04T13:27:42.251Z,21.20
2017-09-04T13:33:11.583Z,22.60
2017-09-04T13:35:44.849Z,24.00
2017-09-04T13:38:18.252Z,25.40
2017-09-04T13:40:51.545Z,26.40
2017-09-04T13:43:24.813Z,28.30
2017-09-04T13:48:54.902Z,28.30
2017-09-04T13:51:40.345Z,28.50
2017-09-04T13:54:13.743Z,30.00
2017-09-04T13:56:45.322Z,31.50
2017-09-04T14:12:51.136Z,30.80
2017-09-04T14:15:30.558Z,31.80
2017-09-04T14:18:03.867Z,33.30
2017-09-04T14:20:31.529Z,34.60
2017-09-04T14:22:59.099Z,35.50
2017-09-04T14:25:26.666Z,34.40
2017-09-04T14:27:54.251Z,33.30
2017-09-04T14:30:21.872Z,34.80
2017-09-04T14:32:49.897Z,36.30
2017-09-04T14:35:17.528Z,37.40
2017-09-04T14:37:45.155Z,37.80
2017-09-04T14:40:23.435Z,36.90
2017-09-04T14:42:55.372Z,37.60
2017-09-04T14:45:23.468Z,37.60
2017-09-04T14:47:51.690Z,37.00
2017-09-04T14:50:19.276Z,36.40
2017-09-04T14:52:46.848Z,36.90
2017-09-04T14:55:14.435Z,37.90
2017-09-04T14:57:42.777Z,38.70
2017-09-04T15:00:10.359Z,38.70
2017-09-04T15:02:37.951Z,40.30
2017-09-04T15:05:05.838Z,36.60
2017-09-04T15:07:33.434Z,34.70
2017-09-04T15:10:01.018Z,34.80
2017-09-04T15:12:29.397Z,34.60
2017-09-04T15:14:56.950Z,34.50
2017-09-04T15:17:24.568Z,34.00
2017-09-04T15:19:52.140Z,33.40
2017-09-04T15:22:19.781Z,32.50
2017-09-04T15:24:48.368Z,31.50
2017-09-04T15:27:16.561Z,32.80
2017-09-04T15:29:44.154Z,32.30
2017-09-04T15:32:11.750Z,33.70
2017-09-04T15:34:39.329Z,33.20
2017-09-04T15:37:06.919Z,31.30
2017-09-04T15:39:34.506Z,31.40
2017-09-04T15:42:02.103Z,31.50
2017-09-04T15:44:29.713Z,31.60
2017-09-04T15:46:57.416Z,31.70
2017-09-04T15:49:25.286Z,31.50
2017-09-04T15:51:52.857Z,32.30
2017-09-04T15:54:20.425Z,32.00
2017-09-04T15:56:47.996Z,33.40
2017-09-04T15:59:15.552Z,33.70
2017-09-04T16:01:43.431Z,31.50
2017-09-04T16:04:11.000Z,32.00
2017-09-04T16:06:38.961Z,32.50
2017-09-04T16:09:06.578Z,31.30
2017-09-04T16:11:34.148Z,30.60
2017-09-04T16:14:04.371Z,30.40
2017-09-04T16:16:33.319Z,30.80
2017-09-04T16:19:02.471Z,29.50
2017-09-04T16:21:30.925Z,27.40
2017-09-04T16:27:01.715Z,23.80
2017-09-04T16:29:33.008Z,21.70
2017-09-04T16:32:00.590Z,21.70
2017-09-04T16:34:30.058Z,21.40
2017-09-04T16:40:03.182Z,20.70
2017-09-04T16:42:37.291Z,20.60
2017-09-04T16:45:05.800Z,20.50
2017-09-04T16:47:51.340Z,20.20
2017-09-04T16:53:20.937Z,19.60
2017-09-04T16:55:52.976Z,19.40
2017-09-04T16:58:22.197Z,19.10
2017-09-04T17:00:49.834Z,19.10
2017-09-04T17:03:17.500Z,19.00
2017-09-04T17:05:45.144Z,18.90
2017-09-04T17:17:20.123Z,18.40
2017-09-04T17:20:02.720Z,18.30
2017-09-04T17:22:31.571Z,18.20
2017-09-04T17:25:01.149Z,18.20
2017-09-04T17:27:30.577Z,18.00
2017-09-04T17:29:58.985Z,17.90
2017-09-04T17:32:34.654Z,17.80
2017-09-04T17:35:05.522Z,17.80
2017-09-04T17:37:33.207Z,17.60
2017-09-04T17:40:00.846Z,17.50
2017-09-04T17:42:28.549Z,17.40
2017-09-04T17:44:56.213Z,17.20
2017-09-04T17:47:23.894Z,17.10
2017-09-04T17:49:51.514Z,17.00
2017-09-04T17:52:19.090Z,16.80
2017-09-04T17:54:46.787Z,16.70
2017-09-04T17:57:15.177Z,16.50
2017-09-04T17:59:42.926Z,16.40
2017-09-04T18:02:10.582Z,16.40
2017-09-04T18:04:38.267Z,16.30
2017-09-04T18:07:05.857Z,16.20
2017-09-04T18:09:33.489Z,16.10
2017-09-04T18:12:01.307Z,16.00
2017-09-04T18:14:28.877Z,15.90
2017-09-04T18:16:56.527Z,15.80
2017-09-04T18:19:32.325Z,15.70
2017-09-04T18:22:00.792Z,15.60
2017-09-04T18:24:28.369Z,15.40
2017-09-04T18:26:56.762Z,15.30
2017-09-04T18:29:25.194Z,15.20
2017-09-04T18:31:56.867Z,15.20
2017-09-04T18:34:29.740Z,15.10
2017-09-04T18:37:03.222Z,15.10
2017-09-04T18:39:30.798Z,15.00
2017-09-04T18:41:58.412Z,14.90
2017-09-04T18:44:25.991Z,14.80
2017-09-04T18:46:53.627Z,14.80
2017-09-04T18:49:21.213Z,14.70
2017-09-04T18:51:56.288Z,14.60
2017-09-04T18:54:30.358Z,14.50
2017-09-04T18:56:57.962Z,14.50
2017-09-04T18:59:26.317Z,14.40
2017-09-04T19:01:53.928Z,14.30
2017-09-04T19:04:21.537Z,14.30
2017-09-04T19:06:49.125Z,14.20
2017-09-04T19:09:16.820Z,14.20
2017-09-04T19:11:44.446Z,14.20
2017-09-04T19:14:12.034Z,14.10
2017-09-04T19:16:39.662Z,14.10
2017-09-04T19:19:07.226Z,14.00
2017-09-04T19:21:34.825Z,14.00
2017-09-04T19:24:02.440Z,13.90
2017-09-04T19:26:30.033Z,13.90
2017-09-04T19:28:57.633Z,13.80
2017-09-04T19:31:25.243Z,13.70
2017-09-04T19:33:52.823Z,13.60
2017-09-04T19:36:20.441Z,13.50
2017-09-04T19:38:48.804Z,13.40
2017-09-04T19:41:23.322Z,13.40
2017-09-04T19:43:50.925Z,13.40
2017-09-04T19:46:18.807Z,13.30
2017-09-04T19:48:46.419Z,13.30
2017-09-04T19:51:13.982Z,13.30
2017-09-04T19:53:41.564Z,13.20
2017-09-04T19:56:09.153Z,13.20
2017-09-04T19:58:36.744Z,13.20
2017-09-04T20:01:04.327Z,13.10
2017-09-04T20:03:31.925Z,13.10
2017-09-04T20:05:59.495Z,13.10
2017-09-04T20:08:27.065Z,13.00
2017-09-04T20:10:54.655Z,13.00
2017-09-04T20:13:22.725Z,13.00
2017-09-04T20:15:51.205Z,12.90
2017-09-04T20:18:19.552Z,12.90
2017-09-04T20:20:47.142Z,12.80
2017-09-04T20:23:14.723Z,12.80
2017-09-04T20:25:42.330Z,12.80
2017-09-04T20:28:09.924Z,12.80
2017-09-04T20:30:38.267Z,12.70
2017-09-04T20:33:05.835Z,12.70
2017-09-04T20:35:46.412Z,12.60
2017-09-04T20:38:13.978Z,12.60
2017-09-04T20:40:41.848Z,12.50
2017-09-04T20:43:09.413Z,12.50
2017-09-04T20:45:36.994Z,12.50
2017-09-04T20:48:04.600Z,12.50
2017-09-04T20:50:32.161Z,12.40
2017-09-04T20:52:59.761Z,12.40
2017-09-04T20:55:27.336Z,12.40
2017-09-04T20:57:55.235Z,12.40
2017-09-04T21:00:22.804Z,12.40
2017-09-04T21:02:50.410Z,12.40
2017-09-04T21:05:18.011Z,12.40
2017-09-04T21:07:45.607Z,12.40
2017-09-04T21:10:13.981Z,12.40
2017-09-04T21:12:41.582Z,12.40
2017-09-04T21:15:09.192Z,12.40
2017-09-04T21:17:36.764Z,12.40
2017-09-04T21:20:04.710Z,12.30
2017-09-04T21:22:32.284Z,12.30
2017-09-04T21:25:00.841Z,12.30
2017-09-04T21:27:31.810Z,12.20
2017-09-04T21:29:59.675Z,12.20
2017-09-04T21:32:27.286Z,12.30
2017-09-04T21:34:54.849Z,12.30
2017-09-04T21:37:22.783Z,12.30
2017-09-04T21:39:50.421Z,12.30
2017-09-04T21:42:18.246Z,12.30
2017-09-04T21:44:46.640Z,12.30
2017-09-04T21:47:14.203Z,12.30
2017-09-04T21:49:41.792Z,12.30
2017-09-04T21:52:09.370Z,12.30
2017-09-04T21:54:36.965Z,12.30
2017-09-04T21:57:04.520Z,12.40
2017-09-04T21:59:32.094Z,12.40
2017-09-04T22:01:59.684Z,12.50
2017-09-04T22:04:28.035Z,12.50
2017-09-04T22:06:55.711Z,12.50
2017-09-04T22:09:23.293Z,12.60
2017-09-04T22:11:50.908Z,12.60
2017-09-04T22:14:18.464Z,12.60
2017-09-04T22:16:46.056Z,12.70
2017-09-04T22:19:13.628Z,12.70
2017-09-04T22:21:41.551Z,12.70
2017-09-04T22:24:09.128Z,12.70
2017-09-04T22:26:37.482Z,12.80
2017-09-04T22:29:05.077Z,12.70
2017-09-04T22:31:33.630Z,12.90
2017-09-04T22:34:01.214Z,12.90
2017-09-04T22:36:28.785Z,12.90
2017-09-04T22:38:56.360Z,13.00
2017-09-04T22:41:23.940Z,13.10
2017-09-04T22:43:51.888Z,13.10
2017-09-04T22:46:19.459Z,13.20
2017-09-04T22:48:47.050Z,13.20
2017-09-04T22:51:15.430Z,13.20
2017-09-04T22:53:43.045Z,13.30
2017-09-04T22:56:10.649Z,13.30
2017-09-04T22:58:38.223Z,13.40
2017-09-04T23:01:05.819Z,13.40
2017-09-04T23:03:33.730Z,13.40
2017-09-04T23:06:02.085Z,13.40
2017-09-04T23:08:30.409Z,13.50
2017-09-04T23:10:58.393Z,13.50
2017-09-04T23:13:25.973Z,13.50
2017-09-04T23:15:53.542Z,13.60
2017-09-04T23:18:21.122Z,13.50
2017-09-04T23:20:48.691Z,13.50
2017-09-04T23:23:16.280Z,13.50
2017-09-04T23:25:43.853Z,13.40
2017-09-04T23:28:11.454Z,13.50
2017-09-04T23:30:39.043Z,13.40
2017-09-04T23:33:06.934Z,13.50
2017-09-04T23:35:34.696Z,13.50
2017-09-04T23:38:02.255Z,13.50
2017-09-04T23:40:29.840Z,13.60
2017-09-04T23:42:57.420Z,13.60
2017-09-04T23:45:25.017Z,13.70
2017-09-04T23:47:52.607Z,13.70
2017-09-04T23:50:20.192Z,13.80
2017-09-04T23:52:48.538Z,13.80
2017-09-04T23:55:16.135Z,13.80
2017-09-04T23:57:44.481Z,13.80
